Urb Bonneville Gdns, Puerto Rico
Current Conditions -  °F | °C
As of 3:56 AM on Sunday 21 Dec 2014 (Local Time) from TJSJ Reporting Station
Few Clouds Few Clouds  
Wind Chill: 76°   Ceiling: Unl
Heat Index: 76°   Visibility: 10mi
Dew Point: 69°   Wind: 6mph
Humidity: 79%   Direction: 90°E
Pressure: 30.01"   Gusts: NA
Location:  18.2361°N, 66.0369°W
Report Text: TJSJ 210756Z 09005KT 10SM FEW029 24/21 A3001 RMK AO2 SLP160 T02440206
Loading
Personal Weather Stations






























Interactive Weather Map New forecast layout! Learn more

10-Day Weather Forecast

Advertisements
Track Severe Weather on mobile